Time,TemperatureF,DewpointF,PressureIn,WindDirection,WindDirectionDegrees,WindSpeedMPH,WindSpeedGustMPH,Humidity,HourlyPrecipIn,Conditions,Clouds,dailyrainin,SoftwareType,DateUTC
2013-01-24 00:00:00,32.4,17.2,30.05,SE,132,1.1,1.1,53,0.00,CLR,,0.00,WeatherDisplay:10.37,2013-01-24 05:00:00,
2013-01-24 00:01:00,32.4,17.2,30.05,SE,134,1.1,1.1,53,0.00,CLR,,0.00,WeatherDisplay:10.37,2013-01-24 05:01:00,
2013-01-24 00:06:00,32.6,17.3,30.05,ESE,110,0.0,0.0,53,0.00,CLR,,0.00,WeatherDisplay:10.37,2013-01-24 05:06:00,
2013-01-24 00:10:00,32.6,17.8,30.05,SW,224,3.5,3.5,54,0.00,CLR,,0.00,WeatherDisplay:10.37,2013-01-24 05:10:00,
2013-01-24 00:15:00,32.7,17.9,30.04,East,101,1.1,1.1,54,0.00,CLR,,0.00,WeatherDisplay:10.37,2013-01-24 05:15:00,
2013-01-24 00:20:00,32.9,18.5,30.05,WSW,256,2.3,2.3,55,0.00,CLR,,0.00,WeatherDisplay:10.37,2013-01-24 05:20:00,
2013-01-24 00:25:00,33.1,18.7,30.04,ESE,113,1.0,1.0,55,0.00,CLR,,0.00,WeatherDisplay:10.37,2013-01-24 05:25:00,
2013-01-24 00:30:00,33.2,18.8,30.03,ENE,60,0.0,0.0,55,0.00,CLR,,0.00,WeatherDisplay:10.37,2013-01-24 05:30:00,
2013-01-24 00:35:00,33.3,19.3,30.03,WNW,295,1.1,1.1,56,0.00,CLR,,0.00,WeatherDisplay:10.37,2013-01-24 05:35:00,
2013-01-24 00:40:00,33.3,19.3,30.02,ESE,108,1.1,0.0,56,0.00,CLR,,0.00,WeatherDisplay:10.37,2013-01-24 05:40:00,
2013-01-24 00:45:00,33.3,19.7,30.03,East,99,2.3,2.3,57,0.00,CLR,,0.00,WeatherDisplay:10.37,2013-01-24 05:45:00,
2013-01-24 00:50:00,33.5,20.3,30.02,WNW,285,1.1,1.1,58,0.00,CLR,,0.00,WeatherDisplay:10.37,2013-01-24 05:50:00,
2013-01-24 00:55:00,33.7,20.5,30.02,SW,228,2.0,2.0,58,0.00,CLR,,0.00,WeatherDisplay:10.37,2013-01-24 05:55:00,
2013-01-24 01:00:00,33.9,21.1,30.02,SW,219,3.5,3.5,59,0.00,CLR,,0.00,WeatherDisplay:10.37,2013-01-24 06:00:00,
2013-01-24 01:05:00,34.2,21.4,30.02,SSW,207,1.1,1.1,59,0.00,CLR,,0.00,WeatherDisplay:10.37,2013-01-24 06:05:00,
2013-01-24 01:10:00,34.3,21.8,30.02,SSW,212,3.5,3.5,60,0.00,CLR,,0.00,WeatherDisplay:10.37,2013-01-24 06:10:00,
2013-01-24 01:15:00,34.3,21.8,30.01,East,96,1.1,1.1,60,0.00,CLR,,0.00,WeatherDisplay:10.37,2013-01-24 06:15:00,
2013-01-24 01:20:00,34.3,22.2,30.01,SW,233,4.6,4.6,61,0.00,CLR,,0.00,WeatherDisplay:10.37,2013-01-24 06:20:00,
2013-01-24 01:25:00,34.5,22.4,30.01,South,183,2.3,2.3,61,0.00,CLR,,0.00,WeatherDisplay:10.37,2013-01-24 06:25:00,
2013-01-24 01:30:00,34.5,22.8,30.02,SW,217,1.1,0.0,62,0.00,CLR,,0.00,WeatherDisplay:10.37,2013-01-24 06:30:00,
2013-01-24 01:35:00,34.3,22.6,30.01,West,264,1.1,1.1,62,0.00,CLR,,0.00,WeatherDisplay:10.37,2013-01-24 06:35:00,
2013-01-24 01:40:00,34.2,22.5,30.01,SW,225,0.0,0.0,62,0.00,CLR,,0.00,WeatherDisplay:10.37,2013-01-24 06:40:00,
2013-01-24 01:45:00,34.0,22.7,30.02,WSW,248,2.3,2.3,63,0.00,CLR,,0.00,WeatherDisplay:10.37,2013-01-24 06:45:00,
2013-01-24 01:50:00,33.9,22.6,30.01,WSW,238,2.3,2.3,63,0.00,CLR,,0.00,WeatherDisplay:10.37,2013-01-24 06:50:00,
2013-01-24 01:55:00,33.8,22.5,30.01,West,276,2.0,2.0,63,0.00,CLR,,0.00,WeatherDisplay:10.37,2013-01-24 06:55:00,
2013-01-24 02:00:00,33.6,22.7,30.01,WSW,243,3.5,3.5,64,0.00,CLR,,0.00,WeatherDisplay:10.37,2013-01-24 07:00:00,
2013-01-24 02:05:00,33.4,22.5,30.00,ESE,111,2.3,2.3,64,0.00,CLR,,0.00,WeatherDisplay:10.37,2013-01-24 07:05:00,
2013-01-24 02:10:00,33.3,22.4,30.00,WNW,287,3.5,3.5,64,0.00,CLR,,0.00,WeatherDisplay:10.37,2013-01-24 07:10:00,
2013-01-24 02:15:00,33.2,22.7,30.00,SW,236,0.0,0.0,65,0.00,CLR,,0.00,WeatherDisplay:10.37,2013-01-24 07:15:00,
2013-01-24 02:20:00,33.0,22.5,30.00,NE,39,2.3,0.0,65,0.00,CLR,,0.00,WeatherDisplay:10.37,2013-01-24 07:20:00,
2013-01-24 02:25:00,32.9,22.8,30.00,SW,228,1.1,1.1,66,0.00,CLR,,0.00,WeatherDisplay:10.37,2013-01-24 07:25:00,
2013-01-24 02:30:00,32.8,22.7,30.00,SW,224,1.1,1.1,66,0.00,CLR,,0.00,WeatherDisplay:10.37,2013-01-24 07:30:00,
2013-01-24 02:35:00,32.6,22.8,29.99,WSW,240,0.0,0.0,67,0.00,CLR,,0.00,WeatherDisplay:10.37,2013-01-24 07:35:00,
2013-01-24 02:40:00,32.5,22.8,29.99,WSW,247,2.3,2.3,67,0.00,CLR,,0.00,WeatherDisplay:10.37,2013-01-24 07:40:00,
2013-01-24 02:45:00,32.4,22.7,29.99,SW,219,0.0,0.0,67,0.00,CLR,,0.00,WeatherDisplay:10.37,2013-01-24 07:45:00,
2013-01-24 02:50:00,32.3,22.6,30.00,SW,218,2.0,2.0,67,0.00,CLR,,0.00,WeatherDisplay:10.37,2013-01-24 07:50:00,
2013-01-24 02:55:00,32.3,22.6,29.99,SSW,211,1.1,1.1,67,0.00,CLR,,0.00,WeatherDisplay:10.37,2013-01-24 07:55:00,
2013-01-24 03:00:00,32.2,22.8,29.99,WSW,252,2.3,2.3,68,0.00,CLR,,0.00,WeatherDisplay:10.37,2013-01-24 08:00:00,
2013-01-24 03:05:00,32.0,22.6,29.99,WSW,248,0.0,0.0,68,0.00,CLR,,0.00,WeatherDisplay:10.37,2013-01-24 08:05:00,
2013-01-24 03:10:00,31.9,22.5,29.98,ESE,105,0.0,0.0,68,0.00,CLR,,0.00,WeatherDisplay:10.37,2013-01-24 08:10:00,
2013-01-24 03:15:00,31.8,22.8,29.98,East,100,0.0,0.0,69,0.00,CLR,,0.00,WeatherDisplay:10.37,2013-01-24 08:15:00,
2013-01-24 03:20:00,31.8,22.8,29.98,SE,137,0.0,0.0,69,0.00,CLR,,0.00,WeatherDisplay:10.37,2013-01-24 08:20:00,
2013-01-24 03:25:00,31.8,22.8,29.97,ESE,122,0.0,0.0,69,0.00,CLR,,0.00,WeatherDisplay:10.37,2013-01-24 08:25:00,
2013-01-24 03:30:00,31.9,22.9,29.98,WSW,242,0.0,0.0,69,0.00,CLR,,0.00,WeatherDisplay:10.37,2013-01-24 08:30:00,
2013-01-24 03:35:00,31.9,22.9,29.97,South,186,2.3,0.0,69,0.00,CLR,,0.00,WeatherDisplay:10.37,2013-01-24 08:35:00,
2013-01-24 03:40:00,32.1,23.1,29.97,South,191,3.5,3.5,69,0.00,CLR,,0.00,WeatherDisplay:10.37,2013-01-24 08:40:00,
2013-01-24 03:45:00,32.2,23.2,29.97,ESE,108,1.1,0.0,69,0.00,CLR,,0.00,WeatherDisplay:10.37,2013-01-24 08:45:00,
2013-01-24 03:50:00,32.3,23.3,29.97,SW,230,2.3,2.3,69,0.00,CLR,,0.00,WeatherDisplay:10.37,2013-01-24 08:50:00,
2013-01-24 03:55:00,32.6,23.2,29.96,SSE,152,1.1,0.0,68,0.00,CLR,,0.00,WeatherDisplay:10.37,2013-01-24 08:55:00,
2013-01-24 04:00:00,32.8,23.4,29.97,WSW,253,1.1,1.1,68,0.00,CLR,,0.00,WeatherDisplay:10.37,2013-01-24 09:00:00,
2013-01-24 04:05:00,33.0,23.6,29.96,SW,233,2.3,2.3,68,0.00,CLR,,0.00,WeatherDisplay:10.37,2013-01-24 09:05:00,
2013-01-24 04:10:00,33.3,23.9,29.96,NE,36,2.3,2.3,68,0.00,CLR,,0.00,WeatherDisplay:10.37,2013-01-24 09:10:00,
2013-01-24 04:15:00,33.5,23.7,29.96,SW,229,3.5,3.5,67,0.00,CLR,,0.00,WeatherDisplay:10.37,2013-01-24 09:15:00,
2013-01-24 04:20:00,33.8,24.0,29.96,SW,225,3.5,3.5,67,0.00,CLR,,0.00,WeatherDisplay:10.37,2013-01-24 09:20:00,
2013-01-24 04:25:00,34.0,24.2,29.96,SE,145,3.5,3.5,67,0.00,CLR,,0.00,WeatherDisplay:10.37,2013-01-24 09:25:00,
2013-01-24 04:30:00,34.2,24.4,29.97,SW,231,3.5,3.5,67,0.00,CLR,,0.00,WeatherDisplay:10.37,2013-01-24 09:30:00,
2013-01-24 04:35:00,34.2,24.0,29.96,WSW,242,3.5,3.5,66,0.00,CLR,,0.00,WeatherDisplay:10.37,2013-01-24 09:35:00,
2013-01-24 04:40:00,34.2,24.4,29.96,East,84,1.1,0.0,67,0.00,CLR,,0.00,WeatherDisplay:10.37,2013-01-24 09:40:00,
2013-01-24 04:45:00,34.2,24.4,29.96,WNW,301,2.3,2.3,67,0.00,CLR,,0.00,WeatherDisplay:10.37,2013-01-24 09:45:00,
2013-01-24 04:50:00,34.2,24.4,29.97,SW,217,3.5,3.5,67,0.00,CLR,,0.00,WeatherDisplay:10.37,2013-01-24 09:50:00,
2013-01-24 04:55:00,34.2,24.4,29.97,SW,219,1.1,1.1,67,0.00,CLR,,0.00,WeatherDisplay:10.37,2013-01-24 09:55:00,
2013-01-24 05:00:00,34.2,24.4,29.97,SW,227,2.0,2.0,67,0.00,CLR,,0.00,WeatherDisplay:10.37,2013-01-24 10:00:00,
2013-01-24 05:05:00,34.2,24.4,29.97,WSW,241,1.1,1.1,67,0.00,CLR,,0.00,WeatherDisplay:10.37,2013-01-24 10:05:00,
2013-01-24 05:10:00,34.2,24.4,29.97,SW,229,1.0,1.0,67,0.00,CLR,,0.00,WeatherDisplay:10.37,2013-01-24 10:10:00,
2013-01-24 05:15:00,34.2,24.4,29.97,SW,222,2.3,2.3,67,0.00,CLR,,0.00,WeatherDisplay:10.37,2013-01-24 10:15:00,
2013-01-24 05:20:00,34.2,24.7,29.98,NW,315,3.5,0.0,68,0.00,CLR,,0.00,WeatherDisplay:10.37,2013-01-24 10:20:00,
2013-01-24 05:25:00,34.2,24.7,29.97,WSW,248,0.0,0.2,68,0.00,CLR,,0.00,WeatherDisplay:10.37,2013-01-24 10:25:00,
2013-01-24 05:30:00,34.2,24.7,29.98,ENE,64,2.3,0.0,68,0.00,CLR,,0.00,WeatherDisplay:10.37,2013-01-24 10:30:00,
2013-01-24 05:35:00,34.2,24.7,29.98,West,267,1.1,1.1,68,0.00,CLR,,0.00,WeatherDisplay:10.37,2013-01-24 10:35:00,
2013-01-24 05:40:00,34.3,24.8,30.00,NNE,14,3.0,3.0,68,0.00,CLR,,0.00,WeatherDisplay:10.37,2013-01-24 10:40:00,
2013-01-24 05:45:00,34.1,24.6,30.00,NNW,342,5.8,5.8,68,0.00,CLR,,0.00,WeatherDisplay:10.37,2013-01-24 10:45:00,
2013-01-24 05:50:00,34.1,24.6,30.01,NNW,335,4.6,4.6,68,0.00,CLR,,0.00,WeatherDisplay:10.37,2013-01-24 10:50:00,
2013-01-24 05:55:00,34.0,24.2,30.01,NNE,27,4.6,4.6,67,0.00,CLR,,0.00,WeatherDisplay:10.37,2013-01-24 10:55:00,
2013-01-24 06:00:00,33.9,24.1,30.01,North,11,2.3,2.3,67,0.00,CLR,,0.00,WeatherDisplay:10.37,2013-01-24 11:00:00,
2013-01-24 06:05:00,33.9,24.1,30.02,North,350,3.5,3.5,67,0.00,CLR,,0.00,WeatherDisplay:10.37,2013-01-24 11:05:00,
2013-01-24 06:10:00,33.9,24.1,30.02,North,356,2.3,2.3,67,0.00,CLR,,0.00,WeatherDisplay:10.37,2013-01-24 11:10:00,
2013-01-24 06:15:00,33.9,24.1,30.02,NNE,27,2.3,2.3,67,0.00,CLR,,0.00,WeatherDisplay:10.37,2013-01-24 11:15:00,
2013-01-24 06:20:00,33.8,23.6,30.03,North,352,1.1,0.0,66,0.00,CLR,,0.00,WeatherDisplay:10.37,2013-01-24 11:20:00,
2013-01-24 06:25:00,33.9,23.7,30.03,North,4,3.5,3.5,66,0.00,CLR,,0.00,WeatherDisplay:10.37,2013-01-24 11:25:00,
2013-01-24 06:30:00,33.9,23.7,30.04,WNW,293,2.3,2.3,66,0.00,CLR,,0.00,WeatherDisplay:10.37,2013-01-24 11:30:00,
2013-01-24 06:35:00,34.0,23.5,30.04,North,357,4.6,4.6,65,0.00,CLR,,0.00,WeatherDisplay:10.37,2013-01-24 11:35:00,
2013-01-24 06:40:00,34.0,23.5,30.04,North,349,3.5,3.5,65,0.00,CLR,,0.00,WeatherDisplay:10.37,2013-01-24 11:40:00,
2013-01-24 06:45:00,34.0,23.5,30.05,NNE,26,2.3,2.3,65,0.00,CLR,,0.00,WeatherDisplay:10.37,2013-01-24 11:45:00,
2013-01-24 06:50:00,33.9,23.4,30.05,NNE,18,3.5,3.5,65,0.00,CLR,,0.00,WeatherDisplay:10.37,2013-01-24 11:50:00,
2013-01-24 06:55:00,33.8,23.3,30.06,NNE,30,3.5,3.5,65,0.00,CLR,,0.00,WeatherDisplay:10.37,2013-01-24 11:55:00,
2013-01-24 07:00:00,33.8,23.3,30.06,NNE,20,3.5,3.5,65,0.00,CLR,,0.00,WeatherDisplay:10.37,2013-01-24 12:00:00,
2013-01-24 07:05:00,33.7,22.8,30.06,North,6,3.5,3.5,64,0.00,CLR,,0.00,WeatherDisplay:10.37,2013-01-24 12:05:00,
2013-01-24 07:10:00,33.7,22.4,30.07,NNE,13,5.8,5.8,63,0.00,CLR,,0.00,WeatherDisplay:10.37,2013-01-24 12:10:00,
2013-01-24 07:15:00,33.7,22.4,30.07,NNW,339,3.5,3.5,63,0.00,CLR,,0.00,WeatherDisplay:10.37,2013-01-24 12:15:00,
2013-01-24 07:20:00,33.7,22.1,30.08,North,4,3.0,3.0,62,0.00,CLR,,0.00,WeatherDisplay:10.37,2013-01-24 12:20:00,
2013-01-24 07:25:00,33.6,21.6,30.08,North,6,5.8,5.8,61,0.00,CLR,,0.00,WeatherDisplay:10.37,2013-01-24 12:25:00,
2013-01-24 07:30:00,33.5,21.1,30.08,North,9,3.5,3.5,60,0.00,CLR,,0.00,WeatherDisplay:10.37,2013-01-24 12:30:00,
2013-01-24 07:35:00,33.4,21.0,30.09,NW,308,4.6,4.6,60,0.00,CLR,,0.00,WeatherDisplay:10.37,2013-01-24 12:35:00,
2013-01-24 07:40:00,33.3,20.9,30.09,NE,37,4.6,4.6,60,0.00,CLR,,0.00,WeatherDisplay:10.37,2013-01-24 12:40:00,
2013-01-24 07:45:00,33.2,20.8,30.10,North,354,5.8,5.8,60,0.00,CLR,,0.00,WeatherDisplay:10.37,2013-01-24 12:45:00,
2013-01-24 07:50:00,33.2,20.4,30.10,NNE,15,3.5,4.0,59,0.00,CLR,,0.00,WeatherDisplay:10.37,2013-01-24 12:50:00,
2013-01-24 07:56:00,33.1,19.9,30.10,NNE,20,5.0,5.0,58,0.00,CLR,,0.00,WeatherDisplay:10.37,2013-01-24 12:56:00,
2013-01-24 08:01:00,33.0,20.2,30.11,NNE,30,8.1,8.1,59,0.00,CLR,,0.00,WeatherDisplay:10.37,2013-01-24 13:01:00,
2013-01-24 08:06:00,32.9,19.7,30.11,North,8,4.0,4.0,58,0.00,CLR,,0.00,WeatherDisplay:10.37,2013-01-24 13:06:00,
2013-01-24 08:11:00,32.8,19.6,30.12,NNE,30,5.8,5.8,58,0.00,CLR,,0.00,WeatherDisplay:10.37,2013-01-24 13:11:00,
2013-01-24 08:16:00,32.8,19.6,30.12,NNE,15,3.5,3.5,58,0.00,CLR,,0.00,WeatherDisplay:10.37,2013-01-24 13:16:00,
2013-01-24 08:21:00,32.7,19.5,30.13,NW,325,3.5,3.5,58,0.00,CLR,,0.00,WeatherDisplay:10.37,2013-01-24 13:21:00,
2013-01-24 08:26:00,32.6,19.4,30.14,ENE,57,5.0,5.0,58,0.00,CLR,,0.00,WeatherDisplay:10.37,2013-01-24 13:26:00,
2013-01-24 08:31:00,32.5,19.3,30.14,NNW,340,3.5,3.5,58,0.00,CLR,,0.00,WeatherDisplay:10.37,2013-01-24 13:31:00,
2013-01-24 08:36:00,32.3,19.2,30.15,NNE,25,6.9,6.9,58,0.00,CLR,,0.00,WeatherDisplay:10.37,2013-01-24 13:36:00,
2013-01-24 08:41:00,32.3,19.2,30.15,NNE,14,6.9,6.9,58,0.00,CLR,,0.00,WeatherDisplay:10.37,2013-01-24 13:41:00,
2013-01-24 08:46:00,32.2,19.5,30.16,WSW,258,3.5,3.5,59,0.00,CLR,,0.00,WeatherDisplay:10.37,2013-01-24 13:46:00,
2013-01-24 08:51:00,32.2,19.1,30.16,NE,51,3.5,3.5,58,0.00,CLR,,0.00,WeatherDisplay:10.37,2013-01-24 13:51:00,
2013-01-24 08:56:00,32.2,19.1,30.16,North,354,8.1,8.1,58,0.00,CLR,,0.00,WeatherDisplay:10.37,2013-01-24 13:56:00,
2013-01-24 09:01:00,32.3,19.2,30.17,North,354,3.5,3.5,58,0.00,CLR,,0.00,WeatherDisplay:10.37,2013-01-24 14:01:00,
2013-01-24 09:06:00,32.5,18.9,30.17,WNW,289,8.1,8.1,57,0.00,CLR,,0.00,WeatherDisplay:10.37,2013-01-24 14:06:00,
2013-01-24 09:11:00,32.6,18.6,30.18,NE,56,8.1,8.1,56,0.00,CLR,,0.00,WeatherDisplay:10.37,2013-01-24 14:11:00,
2013-01-24 09:16:00,32.7,18.7,30.18,North,355,5.8,5.8,56,0.00,CLR,,0.00,WeatherDisplay:10.37,2013-01-24 14:16:00,
2013-01-24 09:21:00,33.0,19.0,30.19,NNE,12,10.4,10.4,56,0.00,CLR,,0.00,WeatherDisplay:10.37,2013-01-24 14:21:00,
2013-01-24 09:26:00,33.3,18.4,30.19,North,359,6.9,6.9,54,0.00,CLR,,0.00,WeatherDisplay:10.37,2013-01-24 14:26:00,
2013-01-24 09:31:00,33.6,18.7,30.19,ENE,58,5.8,5.8,54,0.00,CLR,,0.00,WeatherDisplay:10.37,2013-01-24 14:31:00,
2013-01-24 09:36:00,33.8,18.5,30.20,NNW,338,6.9,6.9,53,0.00,CLR,,0.00,WeatherDisplay:10.37,2013-01-24 14:36:00,
2013-01-24 09:41:00,33.9,18.6,30.20,North,9,5.8,5.8,53,0.00,CLR,,0.00,WeatherDisplay:10.37,2013-01-24 14:41:00,
2013-01-24 09:46:00,34.1,18.3,30.21,WSW,249,5.8,5.8,52,0.00,CLR,,0.00,WeatherDisplay:10.37,2013-01-24 14:46:00,
2013-01-24 09:51:00,34.2,17.9,30.21,NE,37,6.0,6.0,51,0.00,CLR,,0.00,WeatherDisplay:10.37,2013-01-24 14:51:00,
2013-01-24 09:56:00,34.5,18.2,30.21,NNE,30,3.5,3.5,51,0.00,CLR,,0.00,WeatherDisplay:10.37,2013-01-24 14:56:00,
2013-01-24 10:01:00,34.8,18.0,30.22,WNW,291,11.5,11.5,50,0.00,CLR,,0.00,WeatherDisplay:10.37,2013-01-24 15:01:00,
2013-01-24 10:06:00,34.5,17.8,30.22,NNE,12,10.4,10.4,50,0.00,CLR,,0.00,WeatherDisplay:10.37,2013-01-24 15:06:00,
2013-01-24 10:11:00,34.5,17.8,30.23,NNW,340,9.0,9.0,50,0.00,CLR,,0.00,WeatherDisplay:10.37,2013-01-24 15:11:00,
2013-01-24 10:16:00,34.4,17.2,30.23,NNE,18,9.2,9.2,49,0.00,CLR,,0.00,WeatherDisplay:10.37,2013-01-24 15:16:00,
2013-01-24 10:21:00,34.3,17.1,30.24,WNW,295,9.2,9.2,49,0.00,CLR,,0.00,WeatherDisplay:10.37,2013-01-24 15:21:00,
2013-01-24 10:26:00,34.8,17.6,30.24,WNW,284,8.1,8.1,49,0.00,CLR,,0.00,WeatherDisplay:10.37,2013-01-24 15:26:00,
2013-01-24 10:31:00,35.3,18.0,30.24,NNE,32,6.9,6.9,49,0.00,CLR,,0.00,WeatherDisplay:10.37,2013-01-24 15:31:00,
2013-01-24 10:36:00,35.0,17.3,30.24,NNE,18,9.2,9.2,48,0.00,CLR,,0.00,WeatherDisplay:10.37,2013-01-24 15:36:00,
2013-01-24 10:41:00,34.9,17.2,30.25,NNE,29,11.5,11.5,48,0.00,CLR,,0.00,WeatherDisplay:10.37,2013-01-24 15:41:00,
2013-01-24 10:46:00,34.9,17.2,30.25,NW,309,11.5,11.5,48,0.00,CLR,,0.00,WeatherDisplay:10.37,2013-01-24 15:46:00,
2013-01-24 10:51:00,34.9,17.2,30.25,NW,308,10.4,10.4,48,0.00,CLR,,0.00,WeatherDisplay:10.37,2013-01-24 15:51:00,
2013-01-24 10:56:00,34.9,17.2,30.25,North,11,8.0,8.0,48,0.00,CLR,,0.00,WeatherDisplay:10.37,2013-01-24 15:56:00,
2013-01-24 11:01:00,34.8,17.1,30.25,NE,37,10.4,10.4,48,0.00,CLR,,0.00,WeatherDisplay:10.37,2013-01-24 16:01:00,
2013-01-24 11:06:00,34.6,17.4,30.25,North,356,7.0,7.0,49,0.00,CLR,,0.00,WeatherDisplay:10.37,2013-01-24 16:06:00,
2013-01-24 11:11:00,34.3,16.6,30.26,East,92,11.5,11.5,48,0.00,CLR,,0.00,WeatherDisplay:10.37,2013-01-24 16:11:00,
2013-01-24 11:16:00,34.1,16.4,30.27,NW,316,6.9,6.9,48,0.00,CLR,,0.00,WeatherDisplay:10.37,2013-01-24 16:16:00,
2013-01-24 11:21:00,34.1,17.4,30.28,NNE,23,10.4,10.4,50,0.00,CLR,,0.00,WeatherDisplay:10.37,2013-01-24 16:21:00,
2013-01-24 11:26:00,34.0,17.3,30.29,ENE,67,9.0,9.0,50,0.00,CLR,,0.00,WeatherDisplay:10.37,2013-01-24 16:26:00,
2013-01-24 11:31:00,33.9,15.8,30.30,NE,36,12.7,12.7,47,0.00,CLR,,0.00,WeatherDisplay:10.37,2013-01-24 16:31:00,
2013-01-24 11:36:00,33.7,15.6,30.29,ENE,57,6.9,6.9,47,0.00,CLR,,0.00,WeatherDisplay:10.37,2013-01-24 16:36:00,
2013-01-24 11:41:00,33.9,15.8,30.30,North,9,11.5,11.5,47,0.00,CLR,,0.00,WeatherDisplay:10.37,2013-01-24 16:41:00,
2013-01-24 11:46:00,33.9,14.8,30.29,NNW,332,13.8,13.8,45,0.00,CLR,,0.00,WeatherDisplay:10.37,2013-01-24 16:46:00,
2013-01-24 11:51:00,34.1,14.9,30.29,NE,50,5.8,5.8,45,0.00,CLR,,0.00,WeatherDisplay:10.37,2013-01-24 16:51:00,
2013-01-24 11:56:00,34.5,15.3,30.30,NNW,334,4.0,4.0,45,0.00,CLR,,0.00,WeatherDisplay:10.37,2013-01-24 16:56:00,
2013-01-24 12:01:00,34.9,13.5,30.30,NNE,27,13.8,13.8,41,0.00,CLR,,0.00,WeatherDisplay:10.37,2013-01-24 17:01:00,
2013-01-24 12:06:00,35.0,13.1,30.30,WNW,295,9.2,9.2,40,0.00,CLR,,0.00,WeatherDisplay:10.37,2013-01-24 17:06:00,
2013-01-24 12:11:00,35.1,13.2,30.30,NE,41,4.6,4.6,40,0.00,CLR,,0.00,WeatherDisplay:10.37,2013-01-24 17:11:00,
2013-01-24 12:16:00,35.2,12.1,30.31,NW,316,6.9,6.9,38,0.00,CLR,,0.00,WeatherDisplay:10.37,2013-01-24 17:16:00,
2013-01-24 12:21:00,34.8,11.1,30.31,North,359,7.0,7.0,37,0.00,CLR,,0.00,WeatherDisplay:10.37,2013-01-24 17:21:00,
2013-01-24 12:26:00,34.8,11.1,30.31,NE,39,11.5,11.5,37,0.00,CLR,,0.00,WeatherDisplay:10.37,2013-01-24 17:26:00,
2013-01-24 12:31:00,34.4,10.2,30.31,NNW,338,11.5,11.5,36,0.00,CLR,,0.00,WeatherDisplay:10.37,2013-01-24 17:31:00,
2013-01-24 12:36:00,34.3,9.4,30.31,West,274,8.1,8.1,35,0.00,CLR,,0.00,WeatherDisplay:10.37,2013-01-24 17:36:00,
2013-01-24 12:41:00,34.4,9.5,30.31,NNE,32,10.4,10.4,35,0.00,CLR,,0.00,WeatherDisplay:10.37,2013-01-24 17:41:00,
2013-01-24 12:46:00,34.1,8.0,30.31,NNE,19,11.5,11.5,33,0.00,CLR,,0.00,WeatherDisplay:10.37,2013-01-24 17:46:00,
2013-01-24 12:51:00,33.8,7.0,30.31,NNE,25,13.0,13.0,32,0.00,CLR,,0.00,WeatherDisplay:10.37,2013-01-24 17:51:00,
2013-01-24 12:56:00,33.5,6.0,30.31,North,5,6.9,6.9,31,0.00,CLR,,0.00,WeatherDisplay:10.37,2013-01-24 17:56:00,
2013-01-24 13:01:00,33.7,5.5,30.32,NNE,20,11.5,11.5,30,0.00,CLR,,0.00,WeatherDisplay:10.37,2013-01-24 18:01:00,
2013-01-24 13:06:00,33.4,5.2,30.32,ENE,57,9.2,9.2,30,0.00,CLR,,0.00,WeatherDisplay:10.37,2013-01-24 18:06:00,
2013-01-24 13:11:00,33.6,6.1,30.32,NW,325,11.5,11.5,31,0.00,CLR,,0.00,WeatherDisplay:10.37,2013-01-24 18:11:00,
2013-01-24 13:16:00,33.5,4.6,30.32,NNW,335,11.5,11.5,29,0.00,CLR,,0.00,WeatherDisplay:10.37,2013-01-24 18:16:00,
2013-01-24 13:21:00,33.8,5.6,30.33,NW,305,9.0,9.0,30,0.00,CLR,,0.00,WeatherDisplay:10.37,2013-01-24 18:21:00,
2013-01-24 13:26:00,33.8,4.8,30.33,ENE,68,9.2,9.2,29,0.00,CLR,,0.00,WeatherDisplay:10.37,2013-01-24 18:26:00,
2013-01-24 13:31:00,33.8,5.6,30.34,North,352,5.8,5.8,30,0.00,CLR,,0.00,WeatherDisplay:10.37,2013-01-24 18:31:00,
2013-01-24 13:36:00,34.2,5.9,30.33,NNE,22,8.1,8.1,30,0.00,CLR,,0.00,WeatherDisplay:10.37,2013-01-24 18:36:00,
2013-01-24 13:41:00,34.4,6.8,30.33,NNW,335,8.1,8.1,31,0.00,CLR,,0.00,WeatherDisplay:10.37,2013-01-24 18:41:00,
2013-01-24 13:46:00,34.2,5.9,30.33,WNW,283,16.0,16.0,30,0.00,CLR,,0.00,WeatherDisplay:10.37,2013-01-24 18:46:00,
2013-01-24 13:51:00,34.2,5.9,30.33,NNE,22,8.1,8.1,30,0.00,CLR,,0.00,WeatherDisplay:10.37,2013-01-24 18:51:00,
2013-01-24 13:56:00,34.5,6.9,30.33,ENE,60,9.2,9.2,31,0.00,CLR,,0.00,WeatherDisplay:10.37,2013-01-24 18:56:00,
2013-01-24 14:01:00,34.6,7.7,30.33,NNE,27,2.3,2.3,32,0.00,CLR,,0.00,WeatherDisplay:10.37,2013-01-24 19:01:00,
2013-01-24 14:06:00,34.8,7.9,30.34,NE,43,3.5,3.5,32,0.00,CLR,,0.00,WeatherDisplay:10.37,2013-01-24 19:06:00,
2013-01-24 14:11:00,34.9,7.3,30.34,WNW,298,10.4,10.4,31,0.00,CLR,,0.00,WeatherDisplay:10.37,2013-01-24 19:11:00,
2013-01-24 14:16:00,35.1,7.5,30.34,East,89,8.1,8.1,31,0.00,CLR,,0.00,WeatherDisplay:10.37,2013-01-24 19:16:00,
2013-01-24 14:21:00,35.1,11.4,30.34,NNW,338,6.9,6.9,37,0.00,CLR,,0.00,WeatherDisplay:10.37,2013-01-24 19:21:00,
2013-01-24 14:26:00,34.9,13.0,30.34,North,352,6.9,6.9,40,0.00,CLR,,0.00,WeatherDisplay:10.37,2013-01-24 19:26:00,
2013-01-24 14:31:00,35.1,13.7,30.35,NE,50,4.6,4.6,41,0.00,CLR,,0.00,WeatherDisplay:10.37,2013-01-24 19:31:00,
2013-01-24 14:36:00,35.0,14.2,30.36,NE,43,3.5,3.5,42,0.00,CLR,,0.00,WeatherDisplay:10.37,2013-01-24 19:36:00,
2013-01-24 14:41:00,34.6,12.1,30.35,NNE,16,6.9,6.9,39,0.00,CLR,,0.00,WeatherDisplay:10.37,2013-01-24 19:41:00,
2013-01-24 14:46:00,34.5,12.6,30.36,North,353,3.5,3.5,40,0.00,CLR,,0.00,WeatherDisplay:10.37,2013-01-24 19:46:00,
2013-01-24 14:51:00,35.0,11.3,30.36,North,354,3.5,3.5,37,0.00,CLR,,0.00,WeatherDisplay:10.37,2013-01-24 19:51:00,
2013-01-24 14:56:00,34.2,9.4,30.36,NNW,329,5.8,5.8,35,0.00,CLR,,0.00,WeatherDisplay:10.37,2013-01-24 19:56:00,
2013-01-24 15:01:00,33.5,11.7,30.36,East,89,4.0,4.0,40,0.00,CLR,,0.00,WeatherDisplay:10.37,2013-01-24 20:01:00,
2013-01-24 15:06:00,33.7,12.5,30.37,East,90,4.0,4.0,41,0.00,CLR,,0.00,WeatherDisplay:10.37,2013-01-24 20:06:00,
2013-01-24 15:11:00,33.6,10.7,30.38,NE,51,7.0,7.0,38,0.00,CLR,,0.00,WeatherDisplay:10.37,2013-01-24 20:11:00,
2013-01-24 15:16:00,33.7,12.5,30.38,NNE,18,3.5,3.5,41,0.00,CLR,,0.00,WeatherDisplay:10.37,2013-01-24 20:16:00,
2013-01-24 15:21:00,33.6,12.4,30.38,NE,56,5.8,5.8,41,0.00,CLR,,0.00,WeatherDisplay:10.37,2013-01-24 20:21:00,
2013-01-24 15:26:00,33.3,12.6,30.38,North,360,8.1,8.1,42,0.00,CLR,,0.00,WeatherDisplay:10.37,2013-01-24 20:26:00,
2013-01-24 15:31:00,33.3,12.1,30.38,East,89,4.6,4.6,41,0.00,CLR,,0.00,WeatherDisplay:10.37,2013-01-24 20:31:00,
2013-01-24 15:36:00,33.2,10.9,30.38,North,349,4.0,4.0,39,0.00,CLR,,0.00,WeatherDisplay:10.37,2013-01-24 20:36:00,
2013-01-24 15:41:00,33.1,11.4,30.39,NNE,17,5.0,5.0,40,0.00,CLR,,0.00,WeatherDisplay:10.37,2013-01-24 20:41:00,
2013-01-24 15:46:00,32.8,11.6,30.39,North,8,5.8,5.8,41,0.00,CLR,,0.00,WeatherDisplay:10.37,2013-01-24 20:46:00,
2013-01-24 15:51:00,32.5,10.8,30.40,ENE,72,5.8,5.8,40,0.00,CLR,,0.00,WeatherDisplay:10.37,2013-01-24 20:51:00,
2013-01-24 15:56:00,32.2,10.5,30.40,NNE,24,3.5,3.5,40,0.00,CLR,,0.00,WeatherDisplay:10.37,2013-01-24 20:56:00,
2013-01-24 16:01:00,32.1,11.0,30.40,NNE,27,4.0,4.0,41,0.00,CLR,,0.00,WeatherDisplay:10.37,2013-01-24 21:01:00,
2013-01-24 16:06:00,32.1,9.9,30.40,NNW,335,5.0,5.0,39,0.00,CLR,,0.00,WeatherDisplay:10.37,2013-01-24 21:06:00,
2013-01-24 16:11:00,32.1,8.1,30.40,NNE,29,3.5,3.5,36,0.00,CLR,,0.00,WeatherDisplay:10.37,2013-01-24 21:11:00,
2013-01-24 16:16:00,31.9,7.9,30.40,NNE,27,3.5,3.5,36,0.00,CLR,,0.00,WeatherDisplay:10.37,2013-01-24 21:16:00,
2013-01-24 16:21:00,31.9,7.3,30.41,West,281,3.5,3.5,35,0.00,CLR,,0.00,WeatherDisplay:10.37,2013-01-24 21:21:00,
2013-01-24 16:26:00,31.9,6.0,30.40,North,11,3.5,3.5,33,0.00,CLR,,0.00,WeatherDisplay:10.37,2013-01-24 21:26:00,
2013-01-24 16:31:00,32.0,5.4,30.41,NNW,340,5.8,5.8,32,0.00,CLR,,0.00,WeatherDisplay:10.37,2013-01-24 21:31:00,
2013-01-24 16:36:00,32.1,5.5,30.41,NE,51,7.0,7.0,32,0.00,CLR,,0.00,WeatherDisplay:10.37,2013-01-24 21:36:00,
2013-01-24 16:41:00,32.2,5.6,30.42,NNW,345,3.5,4.0,32,0.00,CLR,,0.00,WeatherDisplay:10.37,2013-01-24 21:41:00,
2013-01-24 16:46:00,32.0,7.4,30.41,East,98,3.5,3.5,35,0.00,CLR,,0.00,WeatherDisplay:10.37,2013-01-24 21:46:00,
2013-01-24 16:51:00,31.8,7.8,30.42,NNW,339,2.3,2.3,36,0.00,CLR,,0.00,WeatherDisplay:10.37,2013-01-24 21:51:00,
2013-01-24 16:56:00,31.4,8.1,30.42,ENE,64,3.5,3.5,37,0.00,CLR,,0.00,WeatherDisplay:10.37,2013-01-24 21:56:00,
2013-01-24 17:01:00,31.2,8.5,30.42,NE,40,4.6,4.6,38,0.00,CLR,,0.00,WeatherDisplay:10.37,2013-01-24 22:01:00,
2013-01-24 17:06:00,30.8,9.3,30.43,ENE,73,2.3,2.3,40,0.00,CLR,,0.00,WeatherDisplay:10.37,2013-01-24 22:06:00,
2013-01-24 17:11:00,30.5,9.6,30.44,NE,43,2.3,2.3,41,0.00,CLR,,0.00,WeatherDisplay:10.37,2013-01-24 22:11:00,
2013-01-24 17:16:00,30.4,9.5,30.44,ENE,58,1.1,0.0,41,0.00,CLR,,0.00,WeatherDisplay:10.37,2013-01-24 22:16:00,
2013-01-24 17:21:00,30.3,9.4,30.44,NE,40,1.1,0.0,41,0.00,CLR,,0.00,WeatherDisplay:10.37,2013-01-24 22:21:00,
2013-01-24 17:26:00,30.1,9.7,30.44,NE,53,0.0,0.0,42,0.00,CLR,,0.00,WeatherDisplay:10.37,2013-01-24 22:26:00,
2013-01-24 17:31:00,30.0,9.6,30.44,North,352,1.1,1.1,42,0.00,CLR,,0.00,WeatherDisplay:10.37,2013-01-24 22:31:00,
2013-01-24 17:36:00,29.7,9.9,30.44,North,352,0.0,0.0,43,0.00,CLR,,0.00,WeatherDisplay:10.37,2013-01-24 22:36:00,
2013-01-24 17:41:00,29.4,9.6,30.44,North,352,0.0,0.0,43,0.00,CLR,,0.00,WeatherDisplay:10.37,2013-01-24 22:41:00,
2013-01-24 17:46:00,29.3,9.5,30.44,NNW,338,0.0,0.0,43,0.00,CLR,,0.00,WeatherDisplay:10.37,2013-01-24 22:46:00,
2013-01-24 17:51:00,29.2,10.5,30.44,NNW,338,0.0,0.0,45,0.00,CLR,,0.00,WeatherDisplay:10.37,2013-01-24 22:51:00,
2013-01-24 17:56:00,29.2,10.0,30.45,NNW,338,0.0,0.0,44,0.00,CLR,,0.00,WeatherDisplay:10.37,2013-01-24 22:56:00,
2013-01-24 18:01:00,29.0,9.8,30.45,NNW,339,0.0,0.0,44,0.00,CLR,,0.00,WeatherDisplay:10.37,2013-01-24 23:01:00,
2013-01-24 18:06:00,28.9,9.7,30.46,East,81,0.0,0.0,44,0.00,CLR,,0.00,WeatherDisplay:10.37,2013-01-24 23:06:00,
2013-01-24 18:11:00,29.0,7.1,30.46,ENE,57,4.0,4.0,39,0.00,CLR,,0.00,WeatherDisplay:10.37,2013-01-24 23:11:00,
2013-01-24 18:16:00,29.2,5.5,30.46,NE,39,3.5,3.5,36,0.00,CLR,,0.00,WeatherDisplay:10.37,2013-01-24 23:16:00,
2013-01-24 18:21:00,29.2,5.5,30.46,North,358,2.3,2.3,36,0.00,CLR,,0.00,WeatherDisplay:10.37,2013-01-24 23:21:00,
2013-01-24 18:26:00,29.2,4.9,30.47,NE,54,1.1,0.0,35,0.00,CLR,,0.00,WeatherDisplay:10.37,2013-01-24 23:26:00,
2013-01-24 18:31:00,29.0,5.3,30.47,ENE,57,0.0,0.0,36,0.00,CLR,,0.00,WeatherDisplay:10.37,2013-01-24 23:31:00,
2013-01-24 18:36:00,28.8,4.5,30.47,NE,54,0.0,0.0,35,0.00,CLR,,0.00,WeatherDisplay:10.37,2013-01-24 23:36:00,
2013-01-24 18:41:00,28.7,4.5,30.47,NNW,347,1.1,0.0,35,0.00,CLR,,0.00,WeatherDisplay:10.37,2013-01-24 23:41:00,
2013-01-24 18:46:00,28.6,5.0,30.47,NNW,347,1.1,1.1,36,0.00,CLR,,0.00,WeatherDisplay:10.37,2013-01-24 23:46:00,
2013-01-24 18:52:00,28.4,4.2,30.48,NNE,30,1.1,0.0,35,0.00,CLR,,0.00,WeatherDisplay:10.37,2013-01-24 23:52:00,
2013-01-24 18:57:00,28.4,4.2,30.49,East,98,1.1,1.1,35,0.00,CLR,,0.00,WeatherDisplay:10.37,2013-01-24 23:57:00,
2013-01-24 19:02:00,28.3,4.1,30.49,North,356,0.0,0.0,35,0.00,CLR,,0.00,WeatherDisplay:10.37,2013-01-25 00:02:00,
2013-01-24 19:07:00,28.2,4.0,30.48,North,9,0.0,0.0,35,0.00,CLR,,0.00,WeatherDisplay:10.37,2013-01-25 00:07:00,
2013-01-24 19:12:00,28.0,4.4,30.49,North,353,1.1,0.0,36,0.00,CLR,,0.00,WeatherDisplay:10.37,2013-01-25 00:12:00,
2013-01-24 19:17:00,28.0,5.0,30.49,East,79,1.1,0.0,37,0.00,CLR,,0.00,WeatherDisplay:10.37,2013-01-25 00:17:00,
2013-01-24 19:22:00,27.9,6.1,30.49,ENE,78,0.0,0.0,39,0.00,CLR,,0.00,WeatherDisplay:10.37,2013-01-25 00:22:00,
2013-01-24 19:27:00,27.8,6.0,30.49,NE,43,1.1,1.1,39,0.00,CLR,,0.00,WeatherDisplay:10.37,2013-01-25 00:27:00,
2013-01-24 19:32:00,27.7,6.5,30.50,NE,44,0.0,0.5,40,0.00,CLR,,0.00,WeatherDisplay:10.37,2013-01-25 00:32:00,
2013-01-24 19:37:00,27.6,6.9,30.50,East,82,0.0,0.0,41,0.00,CLR,,0.00,WeatherDisplay:10.37,2013-01-25 00:37:00,
2013-01-24 19:42:00,27.5,6.8,30.50,NE,43,1.1,1.1,41,0.00,CLR,,0.00,WeatherDisplay:10.37,2013-01-25 00:42:00,
2013-01-24 19:47:00,27.3,8.2,30.50,NE,43,0.0,0.0,44,0.00,CLR,,0.00,WeatherDisplay:10.37,2013-01-25 00:47:00,
2013-01-24 19:52:00,27.1,8.0,30.49,NE,46,0.0,0.0,44,0.00,CLR,,0.00,WeatherDisplay:10.37,2013-01-25 00:52:00,
2013-01-24 19:57:00,27.0,8.0,30.50,East,98,0.0,0.0,44,0.00,CLR,,0.00,WeatherDisplay:10.37,2013-01-25 00:57:00,
2013-01-24 20:02:00,26.9,7.9,30.50,NNE,32,2.3,2.3,44,0.00,CLR,,0.00,WeatherDisplay:10.37,2013-01-25 01:02:00,
2013-01-24 20:07:00,26.9,8.4,30.50,NE,50,0.0,0.0,45,0.00,CLR,,0.00,WeatherDisplay:10.37,2013-01-25 01:07:00,
2013-01-24 20:12:00,26.8,8.8,30.50,ENE,76,0.0,0.0,46,0.00,CLR,,0.00,WeatherDisplay:10.37,2013-01-25 01:12:00,
2013-01-24 20:17:00,26.6,8.6,30.50,ENE,74,0.0,0.0,46,0.00,CLR,,0.00,WeatherDisplay:10.37,2013-01-25 01:17:00,
2013-01-24 20:22:00,26.5,8.5,30.50,ENE,73,0.0,0.0,46,0.00,CLR,,0.00,WeatherDisplay:10.37,2013-01-25 01:22:00,
2013-01-24 20:27:00,26.2,8.2,30.50,ENE,68,0.0,0.0,46,0.00,CLR,,0.00,WeatherDisplay:10.37,2013-01-25 01:27:00,
2013-01-24 20:32:00,25.9,8.4,30.50,ENE,68,0.0,0.0,47,0.00,CLR,,0.00,WeatherDisplay:10.37,2013-01-25 01:32:00,
2013-01-24 20:37:00,25.8,8.8,30.51,ENE,68,0.0,0.0,48,0.00,CLR,,0.00,WeatherDisplay:10.37,2013-01-25 01:37:00,
2013-01-24 20:42:00,25.7,9.6,30.51,ENE,68,0.0,0.0,50,0.00,CLR,,0.00,WeatherDisplay:10.37,2013-01-25 01:42:00,
2013-01-24 20:47:00,25.6,8.6,30.51,ENE,68,0.0,0.0,48,0.00,CLR,,0.00,WeatherDisplay:10.37,2013-01-25 01:47:00,
2013-01-24 20:52:00,25.5,9.0,30.50,ENE,68,0.0,0.0,49,0.00,CLR,,0.00,WeatherDisplay:10.37,2013-01-25 01:52:00,
2013-01-24 20:57:00,25.3,8.8,30.51,ENE,68,0.0,0.0,49,0.00,CLR,,0.00,WeatherDisplay:10.37,2013-01-25 01:57:00,
2013-01-24 21:02:00,25.3,9.2,30.51,ENE,68,0.0,0.0,50,0.00,CLR,,0.00,WeatherDisplay:10.37,2013-01-25 02:02:00,
2013-01-24 21:07:00,25.2,8.7,30.52,ENE,68,0.0,0.0,49,0.00,CLR,,0.00,WeatherDisplay:10.37,2013-01-25 02:07:00,
2013-01-24 21:12:00,25.3,8.8,30.51,ENE,67,0.0,0.0,49,0.00,CLR,,0.00,WeatherDisplay:10.37,2013-01-25 02:12:00,
2013-01-24 21:17:00,25.3,7.9,30.51,NNE,30,1.1,1.1,47,0.00,CLR,,0.00,WeatherDisplay:10.37,2013-01-25 02:17:00,
2013-01-24 21:22:00,25.4,7.9,30.51,East,82,2.3,2.3,47,0.00,CLR,,0.00,WeatherDisplay:10.37,2013-01-25 02:22:00,
2013-01-24 21:27:00,25.3,7.4,30.51,NE,46,2.3,2.3,46,0.00,CLR,,0.00,WeatherDisplay:10.37,2013-01-25 02:27:00,
2013-01-24 21:32:00,25.3,7.9,30.50,NE,56,0.0,0.0,47,0.00,CLR,,0.00,WeatherDisplay:10.37,2013-01-25 02:32:00,
2013-01-24 21:37:00,25.2,7.3,30.51,East,98,0.0,0.0,46,0.00,CLR,,0.00,WeatherDisplay:10.37,2013-01-25 02:37:00,
2013-01-24 21:42:00,25.1,7.2,30.51,NE,37,2.3,2.3,46,0.00,CLR,,0.00,WeatherDisplay:10.37,2013-01-25 02:42:00,
2013-01-24 21:47:00,25.1,7.7,30.50,NE,51,0.0,0.0,47,0.00,CLR,,0.00,WeatherDisplay:10.37,2013-01-25 02:47:00,
2013-01-24 21:52:00,25.0,7.1,30.51,NNE,16,2.3,2.3,46,0.00,CLR,,0.00,WeatherDisplay:10.37,2013-01-25 02:52:00,
2013-01-24 21:57:00,24.9,7.0,30.50,NNE,33,0.0,0.0,46,0.00,CLR,,0.00,WeatherDisplay:10.37,2013-01-25 02:57:00,
2013-01-24 22:02:00,24.8,6.9,30.51,East,81,2.3,2.3,46,0.00,CLR,,0.00,WeatherDisplay:10.37,2013-01-25 03:02:00,
2013-01-24 22:07:00,24.7,7.3,30.51,East,87,0.0,0.0,47,0.00,CLR,,0.00,WeatherDisplay:10.37,2013-01-25 03:07:00,
2013-01-24 22:12:00,24.4,7.0,30.50,East,88,1.1,0.0,47,0.00,CLR,,0.00,WeatherDisplay:10.37,2013-01-25 03:12:00,
2013-01-24 22:17:00,24.3,6.5,30.51,NNE,24,0.0,0.0,46,0.00,CLR,,0.00,WeatherDisplay:10.37,2013-01-25 03:17:00,
2013-01-24 22:22:00,24.2,6.4,30.51,NE,41,0.0,0.0,46,0.00,CLR,,0.00,WeatherDisplay:10.37,2013-01-25 03:22:00,
2013-01-24 22:27:00,24.3,6.5,30.51,East,79,2.3,0.0,46,0.00,CLR,,0.00,WeatherDisplay:10.37,2013-01-25 03:27:00,
2013-01-24 22:32:00,24.3,6.5,30.51,NE,34,1.1,1.1,46,0.00,CLR,,0.00,WeatherDisplay:10.37,2013-01-25 03:32:00,
2013-01-24 22:37:00,24.2,6.4,30.51,East,91,1.1,0.0,46,0.00,CLR,,0.00,WeatherDisplay:10.37,2013-01-25 03:37:00,
2013-01-24 22:42:00,24.2,5.9,30.51,ENE,74,1.1,0.0,45,0.00,CLR,,0.00,WeatherDisplay:10.37,2013-01-25 03:42:00,
2013-01-24 22:47:00,24.3,6.0,30.50,ENE,65,1.1,0.0,45,0.00,CLR,,0.00,WeatherDisplay:10.37,2013-01-25 03:47:00,
2013-01-24 22:52:00,24.3,6.0,30.51,ENE,71,0.0,0.0,45,0.00,CLR,,0.00,WeatherDisplay:10.37,2013-01-25 03:52:00,
2013-01-24 22:57:00,24.0,5.7,30.51,ENE,77,1.1,1.1,45,0.00,CLR,,0.00,WeatherDisplay:10.37,2013-01-25 03:57:00,
2013-01-24 23:02:00,24.0,5.7,30.52,East,83,1.1,1.1,45,0.00,CLR,,0.00,WeatherDisplay:10.37,2013-01-25 04:02:00,
2013-01-24 23:07:00,24.1,5.8,30.51,ENE,69,2.3,2.3,45,0.00,CLR,,0.00,WeatherDisplay:10.37,2013-01-25 04:07:00,
2013-01-24 23:12:00,24.0,5.2,30.51,ENE,69,2.3,2.3,44,0.00,CLR,,0.00,WeatherDisplay:10.37,2013-01-25 04:12:00,
2013-01-24 23:17:00,23.9,5.6,30.51,East,82,1.1,0.0,45,0.00,CLR,,0.00,WeatherDisplay:10.37,2013-01-25 04:17:00,
2013-01-24 23:22:00,23.9,5.6,30.51,East,84,1.1,1.1,45,0.00,CLR,,0.00,WeatherDisplay:10.37,2013-01-25 04:22:00,
2013-01-24 23:27:00,23.8,5.5,30.51,ENE,68,2.3,2.3,45,0.00,CLR,,0.00,WeatherDisplay:10.37,2013-01-25 04:27:00,
2013-01-24 23:32:00,23.8,5.0,30.50,ENE,78,1.1,1.1,44,0.00,CLR,,0.00,WeatherDisplay:10.37,2013-01-25 04:32:00,
2013-01-24 23:37:00,23.7,4.9,30.50,ENE,73,3.5,3.5,44,0.00,CLR,,0.00,WeatherDisplay:10.37,2013-01-25 04:37:00,
2013-01-24 23:42:00,23.6,5.8,30.51,ENE,63,1.0,1.0,46,0.00,CLR,,0.00,WeatherDisplay:10.37,2013-01-25 04:42:00,
2013-01-24 23:47:00,23.6,4.8,30.50,NE,41,3.5,3.5,44,0.00,CLR,,0.00,WeatherDisplay:10.37,2013-01-25 04:47:00,
2013-01-24 23:52:00,23.6,5.3,30.50,East,80,2.0,2.0,45,0.00,CLR,,0.00,WeatherDisplay:10.37,2013-01-25 04:52:00,
2013-01-24 23:57:00,23.5,5.2,30.50,NE,36,1.1,1.1,45,0.00,CLR,,0.00,WeatherDisplay:10.37,2013-01-25 04:57:00,